createdAt,value
2023-05-14T00:02:20.411Z,13.85
2023-05-14T00:04:50.400Z,13.80
2023-05-14T00:07:20.688Z,13.86
2023-05-14T00:09:50.536Z,13.85
2023-05-14T00:12:20.873Z,13.87
2023-05-14T00:14:50.575Z,13.93
2023-05-14T00:17:21.258Z,14.06
2023-05-14T00:19:51.461Z,13.96
2023-05-14T00:22:21.790Z,13.41
2023-05-14T00:24:51.789Z,13.10
2023-05-14T00:27:22.142Z,13.15
2023-05-14T00:29:52.011Z,13.16
2023-05-14T00:32:22.514Z,13.18
2023-05-14T00:34:52.402Z,13.15
2023-05-14T00:37:22.806Z,13.07
2023-05-14T00:39:52.690Z,13.04
2023-05-14T00:42:23.002Z,12.94
2023-05-14T00:44:52.922Z,12.83
2023-05-14T00:47:23.624Z,12.74
2023-05-14T00:49:53.669Z,12.68
2023-05-14T00:52:24.201Z,12.72
2023-05-14T00:54:54.207Z,12.69
2023-05-14T00:57:24.578Z,12.73
2023-05-14T00:59:55.104Z,12.71
2023-05-14T01:02:25.700Z,12.69
2023-05-14T01:04:56.202Z,12.76
2023-05-14T01:07:48.514Z,12.76
2023-05-14T01:10:40.407Z,12.68
2023-05-14T01:13:28.260Z,12.65
2023-05-14T01:16:01.492Z,12.63
2023-05-14T01:18:34.875Z,12.59
2023-05-14T01:21:05.022Z,12.55
2023-05-14T01:23:35.337Z,12.47
2023-05-14T01:26:06.174Z,12.58
2023-05-14T01:28:39.153Z,12.73
2023-05-14T01:31:16.543Z,12.95
2023-05-14T01:33:49.306Z,13.05
2023-05-14T01:36:19.659Z,13.10
2023-05-14T01:38:52.314Z,13.07
2023-05-14T01:41:23.825Z,12.98
2023-05-14T01:43:54.517Z,12.97
2023-05-14T01:46:26.240Z,12.99
2023-05-14T01:48:56.687Z,13.01
2023-05-14T01:51:27.299Z,13.08
2023-05-14T01:53:57.658Z,13.03
2023-05-14T01:56:28.175Z,13.07
2023-05-14T01:58:58.646Z,13.05
2023-05-14T02:01:28.579Z,13.06
2023-05-14T02:03:59.051Z,13.10
2023-05-14T02:06:29.141Z,12.90
2023-05-14T02:08:59.524Z,12.50
2023-05-14T02:11:29.900Z,12.25
2023-05-14T02:14:00.272Z,12.21
2023-05-14T02:16:30.079Z,12.14
2023-05-14T02:19:00.736Z,12.03
2023-05-14T02:21:30.652Z,12.14
2023-05-14T02:24:01.070Z,12.13
2023-05-14T02:26:31.043Z,12.17
2023-05-14T02:29:01.779Z,12.19
2023-05-14T02:31:32.130Z,12.26
2023-05-14T02:34:07.889Z,12.29
2023-05-14T02:36:37.844Z,12.27
2023-05-14T02:39:08.280Z,12.36
2023-05-14T02:41:38.161Z,12.41
2023-05-14T02:44:08.463Z,12.34
2023-05-14T02:46:38.418Z,12.27
2023-05-14T02:49:08.850Z,12.15
2023-05-14T02:51:39.791Z,12.10
2023-05-14T02:54:10.116Z,12.12
2023-05-14T02:56:40.065Z,12.19
2023-05-14T02:59:10.632Z,12.21
2023-05-14T03:01:41.165Z,12.19
2023-05-14T03:04:12.208Z,12.21
2023-05-14T03:06:42.209Z,12.27
2023-05-14T03:09:12.789Z,12.44
2023-05-14T03:11:42.743Z,12.66
2023-05-14T03:14:13.103Z,12.67
2023-05-14T03:16:43.356Z,12.65
2023-05-14T03:19:14.741Z,12.60
2023-05-14T03:21:44.803Z,12.59
2023-05-14T03:24:15.134Z,12.56
2023-05-14T03:26:46.966Z,12.50
2023-05-14T03:29:19.180Z,12.54
2023-05-14T03:31:49.164Z,12.50
2023-05-14T03:34:19.565Z,12.40
2023-05-14T03:36:49.284Z,11.98
2023-05-14T03:39:22.467Z,11.77
2023-05-14T03:41:52.559Z,11.69
2023-05-14T03:44:23.054Z,11.81
2023-05-14T03:46:52.938Z,11.89
2023-05-14T03:49:23.404Z,11.83
2023-05-14T03:51:53.307Z,11.91
2023-05-14T03:54:23.658Z,11.98
2023-05-14T03:56:53.355Z,12.20
2023-05-14T03:59:23.700Z,12.25
2023-05-14T04:01:53.399Z,12.28
2023-05-14T04:04:23.737Z,12.33
2023-05-14T04:06:53.533Z,12.05
2023-05-14T04:09:24.544Z,11.82
2023-05-14T04:11:54.458Z,11.89
2023-05-14T04:14:24.909Z,11.87
2023-05-14T04:16:55.216Z,12.09
2023-05-14T04:19:25.684Z,12.00
2023-05-14T04:21:55.567Z,12.03
2023-05-14T04:24:25.325Z,12.11
2023-05-14T04:26:56.036Z,12.11
2023-05-14T04:29:26.838Z,12.14
2023-05-14T04:31:57.248Z,12.14
2023-05-14T04:34:27.526Z,12.17
2023-05-14T04:36:58.099Z,12.20
2023-05-14T04:39:28.051Z,12.25
2023-05-14T04:41:58.447Z,12.23
2023-05-14T04:44:28.572Z,12.20
2023-05-14T04:46:58.871Z,12.22
2023-05-14T04:49:29.004Z,12.19
2023-05-14T04:51:59.605Z,12.20
2023-05-14T04:54:29.780Z,12.23
2023-05-14T04:57:04.269Z,12.14
2023-05-14T04:59:34.345Z,12.14
2023-05-14T05:02:04.802Z,12.19
2023-05-14T05:04:34.698Z,12.14
2023-05-14T05:07:05.004Z,12.17
2023-05-14T05:09:35.047Z,11.48
2023-05-14T05:12:05.600Z,11.35
2023-05-14T05:14:35.707Z,11.21
2023-05-14T05:17:06.275Z,11.24
2023-05-14T05:19:43.818Z,11.31
2023-05-14T05:22:15.020Z,11.21
2023-05-14T05:24:45.280Z,11.20
2023-05-14T05:27:15.789Z,11.10
2023-05-14T05:29:48.661Z,11.01
2023-05-14T05:32:19.030Z,11.03
2023-05-14T05:34:49.119Z,10.95
2023-05-14T05:37:19.477Z,10.87
2023-05-14T05:39:49.673Z,10.77
2023-05-14T05:42:19.985Z,10.74
2023-05-14T05:44:50.107Z,10.78
2023-05-14T05:47:20.413Z,10.85
2023-05-14T05:49:50.527Z,10.93
2023-05-14T05:52:20.803Z,10.92
2023-05-14T05:54:50.880Z,10.95
2023-05-14T05:57:21.185Z,10.99
2023-05-14T05:59:51.296Z,10.99
2023-05-14T06:02:22.056Z,10.93
2023-05-14T06:04:52.276Z,10.86
2023-05-14T06:07:22.572Z,10.77
2023-05-14T06:09:52.654Z,10.72
2023-05-14T06:12:23.047Z,10.65
2023-05-14T06:14:53.125Z,10.57
2023-05-14T06:17:23.915Z,10.68
2023-05-14T06:19:54.632Z,10.67
2023-05-14T06:22:24.902Z,10.84
2023-05-14T06:24:55.031Z,11.01
2023-05-14T06:27:25.302Z,11.17
2023-05-14T06:29:55.356Z,11.21
2023-05-14T06:32:25.679Z,11.23
2023-05-14T06:34:56.255Z,11.28
2023-05-14T06:37:26.656Z,11.35
2023-05-14T06:39:57.857Z,11.38
2023-05-14T06:42:28.556Z,11.42
2023-05-14T06:44:58.518Z,11.46
2023-05-14T06:47:28.795Z,11.45
2023-05-14T06:49:59.814Z,11.45
2023-05-14T06:52:30.230Z,11.47
2023-05-14T06:55:00.101Z,11.50
2023-05-14T06:57:30.376Z,11.57
2023-05-14T07:00:02.777Z,11.50
2023-05-14T07:02:33.833Z,11.49
2023-05-14T07:05:04.259Z,11.49
2023-05-14T07:07:34.592Z,11.48
2023-05-14T07:10:05.025Z,11.53
2023-05-14T07:12:35.339Z,11.46
2023-05-14T07:15:05.484Z,11.43
2023-05-14T07:17:35.850Z,11.43
2023-05-14T07:20:06.256Z,11.32
2023-05-14T07:22:36.798Z,11.18
2023-05-14T07:25:07.474Z,10.49
2023-05-14T07:27:38.281Z,10.72
2023-05-14T07:30:10.062Z,10.41
2023-05-14T07:32:40.552Z,10.47
2023-05-14T07:35:10.991Z,10.35
2023-05-14T07:37:41.625Z,10.43
2023-05-14T07:40:11.819Z,10.50
2023-05-14T07:42:42.146Z,10.49
2023-05-14T07:45:12.371Z,10.50
2023-05-14T07:47:42.863Z,10.49
2023-05-14T07:50:13.765Z,10.48
2023-05-14T07:52:44.150Z,10.50
2023-05-14T07:55:14.439Z,10.53
2023-05-14T07:57:44.769Z,10.48
2023-05-14T08:00:15.416Z,10.49
2023-05-14T08:02:46.409Z,10.47
2023-05-14T08:05:17.052Z,10.44
2023-05-14T08:07:47.355Z,10.38
2023-05-14T08:10:17.337Z,10.45
2023-05-14T08:12:47.664Z,10.49
2023-05-14T08:15:17.630Z,10.52
2023-05-14T08:17:48.110Z,10.54
2023-05-14T08:20:18.194Z,10.49
2023-05-14T08:22:48.486Z,10.52
2023-05-14T08:25:18.430Z,10.38
2023-05-14T08:27:48.809Z,10.32
2023-05-14T08:30:19.259Z,10.35
2023-05-14T08:32:49.616Z,10.26
2023-05-14T08:35:20.223Z,10.22
2023-05-14T08:37:51.355Z,10.15
2023-05-14T08:40:21.650Z,10.16
2023-05-14T08:42:53.947Z,10.15
2023-05-14T08:45:30.509Z,10.14
2023-05-14T08:48:02.516Z,10.19
2023-05-14T08:50:33.202Z,10.16
2023-05-14T08:53:03.507Z,10.10
2023-05-14T08:55:34.848Z,10.18
2023-05-14T08:58:05.318Z,10.43
2023-05-14T09:00:35.539Z,10.50
2023-05-14T09:03:08.265Z,10.60
2023-05-14T09:05:38.559Z,10.56
2023-05-14T09:08:09.061Z,10.55
2023-05-14T09:10:38.975Z,10.49
2023-05-14T09:13:11.202Z,10.44
2023-05-14T09:15:42.505Z,10.42
2023-05-14T09:18:12.801Z,10.39
2023-05-14T09:20:43.303Z,10.46
2023-05-14T09:23:13.667Z,10.49
2023-05-14T09:25:44.410Z,10.49
2023-05-14T09:28:18.445Z,10.64
2023-05-14T09:30:54.442Z,10.63
2023-05-14T09:33:29.538Z,10.72
2023-05-14T09:36:01.949Z,10.73
2023-05-14T09:38:33.123Z,10.78
2023-05-14T09:41:03.711Z,10.89
2023-05-14T09:43:33.417Z,10.91
2023-05-14T09:46:03.814Z,10.79
2023-05-14T09:48:33.732Z,10.73
2023-05-14T09:51:04.879Z,10.96
2023-05-14T09:53:36.689Z,10.83
2023-05-14T09:56:07.322Z,10.72
2023-05-14T09:58:37.360Z,10.76
2023-05-14T10:01:08.444Z,10.76
2023-05-14T10:03:38.870Z,10.76
2023-05-14T10:06:11.686Z,10.74
2023-05-14T10:08:45.205Z,10.54
2023-05-14T10:11:22.193Z,10.45
2023-05-14T10:14:02.225Z,10.48
2023-05-14T10:16:39.401Z,10.41
2023-05-14T10:19:13.741Z,10.33
2023-05-14T10:21:47.335Z,10.22
2023-05-14T10:24:17.685Z,10.26
2023-05-14T10:26:48.361Z,10.23
2023-05-14T10:29:18.747Z,10.29
2023-05-14T10:31:56.814Z,10.38
2023-05-14T10:34:33.557Z,10.48
2023-05-14T10:37:15.395Z,10.72
2023-05-14T10:40:03.349Z,11.28
2023-05-14T10:42:44.613Z,11.55
2023-05-14T10:45:18.736Z,11.58
2023-05-14T10:47:49.919Z,11.63
2023-05-14T10:50:20.692Z,11.79
2023-05-14T10:52:51.197Z,12.01
2023-05-14T10:55:21.096Z,12.24
2023-05-14T10:57:51.683Z,12.67
2023-05-14T11:00:21.946Z,12.98
2023-05-14T11:02:58.758Z,13.31
2023-05-14T11:05:28.914Z,13.68
2023-05-14T11:07:59.802Z,13.75
2023-05-14T11:10:31.236Z,14.10
2023-05-14T11:13:01.300Z,14.14
2023-05-14T11:15:32.551Z,14.06
2023-05-14T11:18:02.721Z,13.90
2023-05-14T11:20:33.915Z,13.52
2023-05-14T11:23:04.701Z,13.48
2023-05-14T11:25:34.986Z,13.32
2023-05-14T11:28:05.001Z,13.21
2023-05-14T11:30:36.425Z,13.23
2023-05-14T11:33:06.553Z,13.31
2023-05-14T11:35:38.097Z,13.35
2023-05-14T11:38:09.302Z,13.43
2023-05-14T11:40:39.688Z,13.56
2023-05-14T11:43:10.087Z,13.83
2023-05-14T11:45:40.523Z,14.31
2023-05-14T11:48:16.933Z,14.65
2023-05-14T11:50:52.383Z,15.07
2023-05-14T11:53:27.829Z,15.73
2023-05-14T11:56:01.483Z,17.01
2023-05-14T11:58:37.538Z,17.52
2023-05-14T12:01:07.921Z,17.86
2023-05-14T12:03:37.937Z,18.54
2023-05-14T12:06:09.352Z,19.02
2023-05-14T12:08:39.327Z,19.30
2023-05-14T12:11:10.849Z,19.57
2023-05-14T12:13:41.922Z,20.02
2023-05-14T12:16:12.364Z,20.02
2023-05-14T12:18:42.462Z,20.55
2023-05-14T12:21:13.180Z,20.82
2023-05-14T12:23:43.360Z,21.23
2023-05-14T12:26:14.683Z,21.37
2023-05-14T12:28:44.600Z,21.87
2023-05-14T12:31:16.951Z,22.55
2023-05-14T12:33:47.067Z,22.75
2023-05-14T12:36:21.775Z,22.25
2023-05-14T12:38:52.846Z,22.01
2023-05-14T12:41:23.333Z,22.13
2023-05-14T12:43:53.329Z,22.02
2023-05-14T12:46:24.264Z,22.59
2023-05-14T12:48:54.789Z,22.84
2023-05-14T12:51:25.459Z,23.37
2023-05-14T12:53:55.479Z,23.60
2023-05-14T12:56:29.369Z,24.05
2023-05-14T12:58:59.370Z,24.71
2023-05-14T13:01:29.714Z,24.54
2023-05-14T13:04:00.854Z,25.01
2023-05-14T13:06:32.801Z,25.30
2023-05-14T13:09:03.625Z,25.58
2023-05-14T13:11:34.167Z,25.19
2023-05-14T13:14:05.049Z,25.01
2023-05-14T13:16:35.467Z,25.54
2023-05-14T13:19:05.522Z,26.12
2023-05-14T13:21:35.844Z,26.25
2023-05-14T13:24:05.999Z,25.87
2023-05-14T13:26:36.499Z,26.66
2023-05-14T13:29:06.527Z,26.98
2023-05-14T13:31:37.550Z,27.29
2023-05-14T13:34:09.183Z,27.51
2023-05-14T13:36:40.832Z,27.96
2023-05-14T13:39:14.297Z,28.20
2023-05-14T13:41:44.994Z,28.37
2023-05-14T13:44:14.905Z,28.70
2023-05-14T13:46:45.267Z,28.56
2023-05-14T13:49:15.220Z,28.08
2023-05-14T13:51:45.914Z,29.02
2023-05-14T13:54:15.902Z,29.64
2023-05-14T13:56:46.197Z,29.52
2023-05-14T13:59:16.408Z,28.33
2023-05-14T14:01:46.888Z,28.36
2023-05-14T14:04:17.668Z,29.33
2023-05-14T14:06:48.088Z,29.59
2023-05-14T14:09:18.183Z,29.01
2023-05-14T14:11:49.045Z,29.15
2023-05-14T14:14:19.562Z,29.30
2023-05-14T14:16:49.896Z,30.07
2023-05-14T14:19:20.310Z,29.97
2023-05-14T14:24:25.636Z,29.78
2023-05-14T14:26:55.979Z,28.54
2023-05-14T14:29:25.926Z,28.41
2023-05-14T14:31:56.341Z,27.67
2023-05-14T14:34:26.709Z,27.64
2023-05-14T14:36:57.007Z,26.93
2023-05-14T14:39:27.656Z,26.84
2023-05-14T14:41:57.944Z,26.83
2023-05-14T14:44:27.946Z,26.85
2023-05-14T14:46:58.244Z,27.70
2023-05-14T14:49:29.707Z,27.29
2023-05-14T14:52:00.320Z,27.62
2023-05-14T14:54:30.282Z,27.11
2023-05-14T14:57:00.592Z,26.76
2023-05-14T14:59:30.756Z,27.42
2023-05-14T15:02:01.153Z,27.19
2023-05-14T15:04:34.461Z,27.19
2023-05-14T15:07:04.905Z,27.54
2023-05-14T15:09:34.832Z,27.65
2023-05-14T15:12:05.258Z,27.38
2023-05-14T15:14:35.255Z,26.99
2023-05-14T15:17:05.803Z,26.87
2023-05-14T15:19:35.816Z,27.06
2023-05-14T15:22:06.551Z,27.48
2023-05-14T15:24:36.511Z,27.17
2023-05-14T15:27:07.022Z,27.31
2023-05-14T15:29:37.004Z,27.72
2023-05-14T15:32:08.030Z,28.67
2023-05-14T15:34:38.106Z,28.53
2023-05-14T15:37:08.604Z,28.52
2023-05-14T15:39:38.550Z,28.46
2023-05-14T15:42:09.015Z,28.20
2023-05-14T15:44:39.187Z,28.62
2023-05-14T15:47:09.641Z,28.56
2023-05-14T15:49:39.714Z,28.36
2023-05-14T15:52:10.078Z,28.27
2023-05-14T15:54:40.003Z,28.32
2023-05-14T15:57:10.291Z,28.31
2023-05-14T15:59:40.644Z,28.38
2023-05-14T16:02:11.080Z,29.16
2023-05-14T16:04:41.047Z,28.41
2023-05-14T16:07:12.025Z,28.33
2023-05-14T16:09:41.978Z,28.36
2023-05-14T16:12:13.476Z,28.82
2023-05-14T16:14:43.468Z,28.93
2023-05-14T16:17:13.835Z,29.32
2023-05-14T16:19:44.064Z,29.51
2023-05-14T16:22:14.406Z,29.57
2023-05-14T16:24:45.924Z,30.14
2023-05-14T16:27:15.985Z,29.70
2023-05-14T16:29:46.114Z,29.67
2023-05-14T16:32:17.196Z,29.66
2023-05-14T16:34:50.869Z,30.24
2023-05-14T16:37:21.759Z,29.96
2023-05-14T16:39:51.788Z,30.41
2023-05-14T16:42:22.349Z,29.69
2023-05-14T16:44:52.400Z,29.23
2023-05-14T16:47:22.655Z,29.16
2023-05-14T16:49:52.517Z,29.93
2023-05-14T16:52:22.829Z,29.57
2023-05-14T16:54:52.789Z,29.50
2023-05-14T16:57:24.949Z,29.28
2023-05-14T16:59:55.189Z,29.11
2023-05-14T17:02:25.506Z,29.25
2023-05-14T17:04:56.498Z,29.35
2023-05-14T17:07:27.064Z,29.22
2023-05-14T17:09:57.035Z,29.03
2023-05-14T17:12:27.841Z,28.88
2023-05-14T17:14:57.719Z,28.87
2023-05-14T17:17:27.983Z,28.65
2023-05-14T17:19:58.129Z,28.99
2023-05-14T17:22:28.458Z,30.01
2023-05-14T17:24:58.431Z,29.97
2023-05-14T17:27:30.356Z,29.38
2023-05-14T17:30:01.432Z,29.90
2023-05-14T17:32:32.879Z,29.59
2023-05-14T17:35:02.919Z,29.50
2023-05-14T17:37:33.316Z,29.29
2023-05-14T17:40:03.253Z,29.02
2023-05-14T17:42:33.558Z,28.83
2023-05-14T17:45:03.557Z,28.73
2023-05-14T17:47:33.824Z,28.36
2023-05-14T17:50:03.790Z,28.73
2023-05-14T17:52:34.076Z,29.29
2023-05-14T17:55:04.021Z,29.33
2023-05-14T17:57:34.384Z,29.01
2023-05-14T18:00:05.976Z,28.72
2023-05-14T18:02:40.832Z,29.22
2023-05-14T18:05:11.080Z,28.70
2023-05-14T18:07:42.223Z,28.90
2023-05-14T18:10:12.321Z,28.80
2023-05-14T18:12:42.812Z,28.85
2023-05-14T18:15:12.951Z,28.66
2023-05-14T18:17:43.417Z,28.59
2023-05-14T18:20:13.907Z,28.51
2023-05-14T18:22:44.218Z,28.88
2023-05-14T18:25:14.824Z,29.02
2023-05-14T18:27:48.163Z,29.24
2023-05-14T18:30:18.139Z,28.82
2023-05-14T18:32:47.934Z,28.69
2023-05-14T18:35:18.248Z,28.62
2023-05-14T18:37:48.744Z,28.57
2023-05-14T18:40:19.066Z,29.00
2023-05-14T18:42:49.657Z,28.66
2023-05-14T18:45:19.683Z,28.47
2023-05-14T18:47:50.069Z,28.71
2023-05-14T18:50:20.074Z,29.07
2023-05-14T18:52:50.393Z,29.14
2023-05-14T18:55:20.305Z,29.03
2023-05-14T18:57:50.897Z,29.10
2023-05-14T19:00:21.063Z,29.21
2023-05-14T19:02:51.548Z,29.25
2023-05-14T19:05:22.241Z,29.15
2023-05-14T19:07:52.859Z,29.64
2023-05-14T19:10:22.822Z,29.87
2023-05-14T19:12:53.184Z,29.76
2023-05-14T19:15:23.254Z,29.49
2023-05-14T19:17:55.104Z,28.92
2023-05-14T19:20:25.063Z,28.75
2023-05-14T19:22:55.393Z,28.53
2023-05-14T19:25:28.514Z,27.88
2023-05-14T19:28:02.575Z,27.97
2023-05-14T19:30:33.025Z,27.85
2023-05-14T19:33:04.446Z,27.75
2023-05-14T19:35:36.119Z,27.26
2023-05-14T19:38:06.589Z,26.69
2023-05-14T19:40:36.503Z,26.25
2023-05-14T19:43:08.978Z,25.81
2023-05-14T19:45:40.292Z,25.66
2023-05-14T19:48:10.879Z,25.48
2023-05-14T19:50:41.078Z,25.34
2023-05-14T19:53:11.627Z,24.96
2023-05-14T19:55:41.605Z,24.88
2023-05-14T19:58:12.505Z,24.85
2023-05-14T20:00:43.195Z,24.67
2023-05-14T20:03:14.527Z,24.23
2023-05-14T20:05:50.110Z,23.98
2023-05-14T20:08:21.831Z,23.96
2023-05-14T20:10:52.262Z,23.68
2023-05-14T20:13:24.482Z,23.34
2023-05-14T20:15:56.178Z,23.08
2023-05-14T20:18:27.184Z,22.75
2023-05-14T20:20:57.218Z,22.42
2023-05-14T20:23:27.585Z,22.17
2023-05-14T20:25:57.980Z,22.00
2023-05-14T20:28:28.309Z,21.72
2023-05-14T20:31:00.044Z,21.46
2023-05-14T20:33:30.587Z,21.12
2023-05-14T20:36:00.454Z,20.92
2023-05-14T20:38:32.335Z,20.70
2023-05-14T20:41:02.264Z,20.41
2023-05-14T20:43:32.723Z,20.29
2023-05-14T20:46:02.758Z,20.07
2023-05-14T20:48:33.082Z,19.92
2023-05-14T20:51:05.880Z,19.78
2023-05-14T20:53:36.575Z,19.63
2023-05-14T20:56:07.782Z,19.44
2023-05-14T20:58:38.146Z,19.29
2023-05-14T21:01:09.187Z,19.21
2023-05-14T21:03:39.660Z,19.12
2023-05-14T21:06:09.716Z,19.01
2023-05-14T21:08:41.440Z,18.92
2023-05-14T21:11:11.557Z,18.81
2023-05-14T21:13:41.902Z,18.66
2023-05-14T21:16:13.830Z,18.65
2023-05-14T21:18:43.839Z,18.59
2023-05-14T21:21:14.217Z,18.52
2023-05-14T21:23:44.184Z,18.44
2023-05-14T21:26:14.583Z,18.37
2023-05-14T21:28:44.315Z,18.13
2023-05-14T21:31:14.666Z,17.96
2023-05-14T21:33:44.425Z,17.60
2023-05-14T21:36:14.881Z,17.25
2023-05-14T21:38:45.299Z,17.38
2023-05-14T21:41:15.709Z,17.22
2023-05-14T21:43:46.294Z,17.18
2023-05-14T21:46:17.432Z,17.08
2023-05-14T21:48:47.454Z,16.95
2023-05-14T21:51:17.877Z,16.83
2023-05-14T21:53:49.449Z,16.81
2023-05-14T21:56:19.880Z,16.75
2023-05-14T21:58:49.778Z,16.93
2023-05-14T22:01:19.578Z,16.60
2023-05-14T22:03:50.086Z,16.66
2023-05-14T22:06:20.106Z,16.47
2023-05-14T22:08:50.489Z,16.35
2023-05-14T22:11:20.462Z,16.59
2023-05-14T22:13:50.813Z,16.70
2023-05-14T22:16:20.663Z,16.67
2023-05-14T22:18:51.008Z,16.64
2023-05-14T22:21:21.060Z,16.71
2023-05-14T22:23:51.491Z,16.73
2023-05-14T22:26:22.992Z,16.74
2023-05-14T22:28:53.707Z,16.65
2023-05-14T22:31:23.704Z,16.69
2023-05-14T22:33:54.751Z,15.77
2023-05-14T22:36:25.576Z,15.39
2023-05-14T22:38:56.075Z,15.39
2023-05-14T22:41:26.057Z,15.32
2023-05-14T22:43:56.506Z,15.21
2023-05-14T22:46:26.563Z,15.23
2023-05-14T22:48:56.915Z,15.16
2023-05-14T22:51:27.167Z,15.22
2023-05-14T22:53:57.570Z,15.30
2023-05-14T22:56:27.479Z,15.26
2023-05-14T22:58:58.317Z,15.30
2023-05-14T23:01:29.452Z,15.17
2023-05-14T23:03:59.849Z,14.97
2023-05-14T23:06:31.392Z,14.96
2023-05-14T23:09:01.746Z,15.02
2023-05-14T23:11:31.758Z,14.90
2023-05-14T23:14:02.369Z,14.80
2023-05-14T23:16:33.020Z,14.72
2023-05-14T23:19:03.720Z,14.66
2023-05-14T23:21:34.152Z,14.48
2023-05-14T23:24:04.601Z,14.36
2023-05-14T23:26:34.676Z,14.34
2023-05-14T23:29:05.066Z,14.45
2023-05-14T23:31:35.082Z,14.29
2023-05-14T23:34:05.470Z,14.22
2023-05-14T23:36:35.989Z,14.26
2023-05-14T23:39:06.868Z,14.27
2023-05-14T23:41:36.883Z,14.28
2023-05-14T23:44:08.387Z,14.51
2023-05-14T23:46:38.436Z,14.60
2023-05-14T23:49:08.832Z,14.59
2023-05-14T23:51:38.936Z,14.55
2023-05-14T23:54:09.226Z,14.60
2023-05-14T23:56:39.183Z,14.51
2023-05-14T23:59:09.120Z,14.48
